createdAt,value
2017-12-19T00:01:47.845Z,11.97
2017-12-19T00:04:17.170Z,10.00
2017-12-19T00:06:45.488Z,9.30
2017-12-19T00:09:13.810Z,8.10
2017-12-19T00:11:42.149Z,8.70
2017-12-19T00:14:10.556Z,7.50
2017-12-19T00:16:39.723Z,6.70
2017-12-19T00:19:08.058Z,7.17
2017-12-19T00:21:36.373Z,5.80
2017-12-19T00:24:04.719Z,6.03
2017-12-19T00:26:33.044Z,6.00
2017-12-19T00:29:01.348Z,8.00
2017-12-19T00:31:29.680Z,6.70
2017-12-19T00:33:58.086Z,5.93
2017-12-19T00:36:26.404Z,7.70
2017-12-19T00:38:55.855Z,6.10
2017-12-19T00:41:26.696Z,5.50
2017-12-19T00:43:55.039Z,5.80
2017-12-19T00:46:23.552Z,6.07
2017-12-19T00:48:52.153Z,5.77
2017-12-19T00:51:20.689Z,4.90
2017-12-19T00:53:48.984Z,6.20
2017-12-19T00:56:17.369Z,7.40
2017-12-19T00:58:45.660Z,6.00
2017-12-19T01:01:14.116Z,6.03
2017-12-19T01:03:42.433Z,5.60
2017-12-19T01:06:10.740Z,5.80
2017-12-19T01:08:39.115Z,5.13
2017-12-19T01:11:07.571Z,5.87
2017-12-19T01:13:35.905Z,5.80
2017-12-19T01:16:04.354Z,5.80
2017-12-19T01:18:32.660Z,5.90
2017-12-19T01:21:00.964Z,6.33
2017-12-19T01:23:29.301Z,6.80
2017-12-19T01:25:57.644Z,5.50
2017-12-19T01:28:26.055Z,6.33
2017-12-19T01:30:54.392Z,5.87
2017-12-19T01:33:22.888Z,6.97
2017-12-19T01:35:51.292Z,6.50
2017-12-19T01:38:19.910Z,7.00
2017-12-19T01:40:48.649Z,7.87
2017-12-19T01:43:16.979Z,7.90
2017-12-19T01:45:45.381Z,8.03
2017-12-19T01:48:13.719Z,9.40
2017-12-19T01:50:42.032Z,8.30
2017-12-19T01:53:10.372Z,9.00
2017-12-19T01:55:38.716Z,10.93
2017-12-19T01:58:07.087Z,9.63
2017-12-19T02:00:35.459Z,10.97
2017-12-19T02:03:03.793Z,11.07
2017-12-19T02:05:32.127Z,11.27
2017-12-19T02:08:04.166Z,12.63
2017-12-19T02:10:32.460Z,12.50
2017-12-19T02:13:00.798Z,12.30
2017-12-19T02:15:29.124Z,10.13
2017-12-19T02:17:57.721Z,10.80
2017-12-19T02:20:26.052Z,11.50
2017-12-19T02:22:54.379Z,13.70
2017-12-19T02:25:22.731Z,12.47
2017-12-19T02:27:51.064Z,12.10
2017-12-19T02:30:19.397Z,10.87
2017-12-19T02:32:47.765Z,12.17
2017-12-19T02:35:19.326Z,12.80
2017-12-19T02:37:50.194Z,13.60
2017-12-19T02:40:19.905Z,12.30
2017-12-19T02:43:01.287Z,10.30
2017-12-19T02:45:29.659Z,11.57
2017-12-19T02:47:58.009Z,10.37
2017-12-19T02:50:26.319Z,10.43
2017-12-19T02:52:54.688Z,11.47
2017-12-19T02:55:23.002Z,11.50
2017-12-19T02:57:51.360Z,10.90
2017-12-19T03:00:20.229Z,10.10
2017-12-19T03:02:48.598Z,10.53
2017-12-19T03:05:16.915Z,11.50
2017-12-19T03:07:45.228Z,10.33
2017-12-19T03:10:13.556Z,11.40
2017-12-19T03:12:41.916Z,12.30
2017-12-19T03:15:10.244Z,10.70
2017-12-19T03:17:38.570Z,9.47
2017-12-19T03:20:06.944Z,10.97
2017-12-19T03:22:35.257Z,9.83
2017-12-19T03:25:04.025Z,12.40
2017-12-19T03:27:33.080Z,11.17
2017-12-19T03:30:01.997Z,9.77
2017-12-19T03:32:30.325Z,11.23
2017-12-19T03:34:58.645Z,11.27
2017-12-19T03:37:27.000Z,10.57
2017-12-19T03:39:55.308Z,11.10
2017-12-19T03:42:23.659Z,13.30
2017-12-19T03:44:51.994Z,11.20
2017-12-19T03:47:20.326Z,11.83
2017-12-19T03:49:48.695Z,13.50
2017-12-19T03:52:17.012Z,11.17
2017-12-19T03:54:45.335Z,10.37
2017-12-19T03:57:13.767Z,11.90
2017-12-19T03:59:42.076Z,10.63
2017-12-19T04:02:10.431Z,12.30
2017-12-19T04:04:38.765Z,10.60
2017-12-19T04:07:07.083Z,11.63
2017-12-19T04:09:35.510Z,12.50
2017-12-19T04:12:03.848Z,13.77
2017-12-19T04:14:32.167Z,12.97
2017-12-19T04:17:00.514Z,12.20
2017-12-19T04:19:28.841Z,11.70
2017-12-19T04:21:57.160Z,11.60
2017-12-19T04:24:25.497Z,12.20
2017-12-19T04:26:53.825Z,12.87
2017-12-19T04:29:22.169Z,12.20
2017-12-19T04:31:50.540Z,13.63
2017-12-19T04:34:18.893Z,13.23
2017-12-19T04:39:21.825Z,11.90
2017-12-19T04:41:50.165Z,14.27
2017-12-19T04:44:19.583Z,11.00
2017-12-19T04:46:48.577Z,13.97
2017-12-19T04:49:16.894Z,11.77
2017-12-19T04:51:45.244Z,12.77
2017-12-19T04:54:13.568Z,14.50
2017-12-19T04:56:41.888Z,14.03
2017-12-19T04:59:10.245Z,13.73
2017-12-19T05:01:38.550Z,14.50
2017-12-19T05:04:06.905Z,13.30
2017-12-19T05:06:35.387Z,15.73
2017-12-19T05:09:03.996Z,15.03
2017-12-19T05:11:32.314Z,14.60
2017-12-19T05:14:00.699Z,14.50
2017-12-19T05:16:29.036Z,16.87
2017-12-19T05:18:57.377Z,15.00
2017-12-19T05:21:25.726Z,17.17
2017-12-19T05:23:54.068Z,17.20
2017-12-19T05:26:22.428Z,15.53
2017-12-19T05:28:50.777Z,14.37
2017-12-19T05:31:19.222Z,15.83
2017-12-19T05:33:48.190Z,16.23
2017-12-19T05:36:16.509Z,15.90
2017-12-19T05:38:44.831Z,16.80
2017-12-19T05:41:13.184Z,15.47
2017-12-19T05:43:41.510Z,15.07
2017-12-19T05:46:10.339Z,15.33
2017-12-19T05:48:38.678Z,16.57
2017-12-19T05:51:13.930Z,15.90
2017-12-19T05:53:42.292Z,15.00
2017-12-19T05:56:20.411Z,14.43
2017-12-19T05:58:48.794Z,13.73
2017-12-19T06:01:17.429Z,14.97
2017-12-19T06:03:45.836Z,13.03
2017-12-19T06:06:14.195Z,17.27
2017-12-19T06:08:42.525Z,14.90
2017-12-19T06:11:11.037Z,14.60
2017-12-19T06:13:39.352Z,15.73
2017-12-19T06:16:07.688Z,16.10
2017-12-19T06:18:36.579Z,15.57
2017-12-19T06:21:06.116Z,15.73
2017-12-19T06:23:34.499Z,15.57
2017-12-19T06:26:02.959Z,16.10
2017-12-19T06:28:36.776Z,15.30
2017-12-19T06:31:05.373Z,14.87
2017-12-19T06:33:33.716Z,15.07
2017-12-19T06:36:02.081Z,14.67
2017-12-19T06:38:30.440Z,14.63
2017-12-19T06:41:00.113Z,12.53
2017-12-19T06:43:29.368Z,13.93
2017-12-19T06:45:59.127Z,14.63
2017-12-19T06:48:27.469Z,13.77
2017-12-19T06:50:55.901Z,12.80
2017-12-19T06:53:24.293Z,13.17
2017-12-19T06:55:52.666Z,14.33
2017-12-19T06:58:21.116Z,13.30
2017-12-19T07:00:50.513Z,13.53
2017-12-19T07:03:20.296Z,11.97
2017-12-19T07:05:48.732Z,10.33
2017-12-19T07:08:17.165Z,11.40
2017-12-19T07:10:45.692Z,11.83
2017-12-19T07:13:17.937Z,12.20
2017-12-19T07:15:49.253Z,12.73
2017-12-19T07:18:20.266Z,13.03
2017-12-19T07:20:48.982Z,12.87
2017-12-19T07:23:19.482Z,13.90
2017-12-19T07:25:49.059Z,13.13
2017-12-19T07:28:18.544Z,12.30
2017-12-19T07:30:48.093Z,12.87
2017-12-19T07:33:20.023Z,12.40
2017-12-19T07:35:48.706Z,14.50
2017-12-19T07:38:18.085Z,13.30
2017-12-19T07:40:49.327Z,13.17
2017-12-19T07:43:18.865Z,14.77
2017-12-19T07:45:47.791Z,13.07
2017-12-19T07:48:16.863Z,15.67
2017-12-19T07:50:46.288Z,15.30
2017-12-19T07:53:14.716Z,15.00
2017-12-19T07:55:43.075Z,17.43
2017-12-19T07:58:12.129Z,16.80
2017-12-19T08:00:41.585Z,16.63
2017-12-19T08:03:13.956Z,14.93
2017-12-19T08:05:45.728Z,17.97
2017-12-19T08:08:16.578Z,16.97
2017-12-19T08:10:45.311Z,18.27
2017-12-19T08:13:14.006Z,18.00
2017-12-19T08:15:42.415Z,17.80
2017-12-19T08:18:10.770Z,16.70
2017-12-19T08:20:39.606Z,19.70
2017-12-19T08:23:07.968Z,18.93
2017-12-19T08:25:36.339Z,20.03
2017-12-19T08:28:04.902Z,19.27
2017-12-19T08:30:33.342Z,20.30
2017-12-19T08:33:02.006Z,20.97
2017-12-19T08:35:30.421Z,19.87
2017-12-19T08:37:58.939Z,19.23
2017-12-19T08:40:27.374Z,19.67
2017-12-19T08:42:57.290Z,20.37
2017-12-19T08:45:29.798Z,19.33
2017-12-19T08:47:59.038Z,19.93
2017-12-19T08:50:27.501Z,19.40
2017-12-19T08:52:57.471Z,19.57
2017-12-19T08:55:28.313Z,21.20
2017-12-19T08:57:57.685Z,19.00
2017-12-19T09:00:26.032Z,19.50
2017-12-19T09:02:54.427Z,20.50
2017-12-19T09:05:22.848Z,21.87
2017-12-19T09:07:51.632Z,25.97
2017-12-19T09:10:20.216Z,20.90
2017-12-19T09:12:48.748Z,20.07
2017-12-19T09:15:17.493Z,19.07
2017-12-19T09:17:45.910Z,19.83
2017-12-19T09:20:14.501Z,18.97
2017-12-19T09:22:42.913Z,19.50
2017-12-19T09:25:11.422Z,17.67
2017-12-19T09:27:43.240Z,16.47
2017-12-19T09:30:15.809Z,17.67
2017-12-19T09:32:44.221Z,17.50
2017-12-19T09:35:12.588Z,17.60
2017-12-19T09:37:41.029Z,19.50
2017-12-19T09:40:10.143Z,17.50
2017-12-19T09:42:38.908Z,16.47
2017-12-19T09:45:07.368Z,18.90
2017-12-19T09:47:35.930Z,18.67
2017-12-19T09:50:04.394Z,20.33
2017-12-19T09:52:32.889Z,18.77
2017-12-19T09:55:01.269Z,21.10
2017-12-19T09:57:29.639Z,18.57
2017-12-19T09:59:58.080Z,21.80
2017-12-19T10:02:27.479Z,20.50
2017-12-19T10:04:57.956Z,20.80
2017-12-19T10:07:28.059Z,21.67
2017-12-19T10:09:56.456Z,19.97
2017-12-19T10:12:27.001Z,23.30
2017-12-19T10:14:58.211Z,21.30
2017-12-19T10:17:26.933Z,21.80
2017-12-19T10:19:56.286Z,20.47
2017-12-19T10:22:24.651Z,22.33
2017-12-19T10:24:54.572Z,21.23
2017-12-19T10:27:24.259Z,20.37
2017-12-19T10:29:53.657Z,20.20
2017-12-19T10:32:22.874Z,20.37
2017-12-19T10:34:51.368Z,20.93
2017-12-19T10:37:22.062Z,21.00
2017-12-19T10:39:50.551Z,23.30
2017-12-19T10:42:18.906Z,19.70
2017-12-19T10:44:47.365Z,19.63
2017-12-19T10:47:15.746Z,21.80
2017-12-19T10:49:44.070Z,20.70
2017-12-19T10:52:12.567Z,22.30
2017-12-19T10:54:40.946Z,22.00
2017-12-19T10:57:10.286Z,21.77
2017-12-19T10:59:39.711Z,21.83
2017-12-19T11:02:08.081Z,20.90
2017-12-19T11:04:36.730Z,22.27
2017-12-19T11:07:05.132Z,23.23
2017-12-19T11:09:33.907Z,23.00
2017-12-19T11:12:02.445Z,23.97
2017-12-19T11:14:30.837Z,24.10
2017-12-19T11:16:59.201Z,25.57
2017-12-19T11:19:27.689Z,27.43
2017-12-19T11:21:57.157Z,25.50
2017-12-19T11:24:25.567Z,25.13
2017-12-19T11:26:54.108Z,24.90
2017-12-19T11:29:22.607Z,25.47
2017-12-19T11:31:50.989Z,25.33
2017-12-19T11:34:20.274Z,22.90
2017-12-19T11:36:49.576Z,22.63
2017-12-19T11:39:18.118Z,22.00
2017-12-19T11:41:46.593Z,20.60
2017-12-19T11:44:15.090Z,22.83
2017-12-19T11:46:43.510Z,23.27
2017-12-19T11:49:11.866Z,24.13
2017-12-19T11:51:40.568Z,24.77
2017-12-19T11:54:09.039Z,25.03
2017-12-19T11:56:37.442Z,24.30
2017-12-19T11:59:05.973Z,23.50
2017-12-19T12:01:34.507Z,20.67
2017-12-19T12:04:04.877Z,25.57
2017-12-19T12:06:33.220Z,23.10
2017-12-19T12:09:01.749Z,21.43
2017-12-19T12:11:30.405Z,21.37
2017-12-19T12:13:58.825Z,22.90
2017-12-19T12:16:27.251Z,22.10
2017-12-19T12:18:57.350Z,21.83
2017-12-19T12:21:25.998Z,18.20
2017-12-19T12:23:54.389Z,21.43
2017-12-19T12:26:22.794Z,21.70
2017-12-19T12:28:51.469Z,18.87
2017-12-19T12:31:19.944Z,22.10
2017-12-19T12:33:48.418Z,22.30
2017-12-19T12:36:16.802Z,21.60
2017-12-19T12:38:45.995Z,19.60
2017-12-19T12:41:14.354Z,20.53
2017-12-19T12:43:42.835Z,18.80
2017-12-19T12:46:12.299Z,20.33
2017-12-19T12:48:41.011Z,19.73
2017-12-19T12:51:09.478Z,21.67
2017-12-19T12:53:38.098Z,21.00
2017-12-19T12:56:06.504Z,22.63
2017-12-19T12:58:34.940Z,20.13
2017-12-19T13:01:03.412Z,16.50
2017-12-19T13:03:31.734Z,18.00
2017-12-19T13:06:00.330Z,19.60
2017-12-19T13:08:28.751Z,16.57
2017-12-19T13:10:57.530Z,15.40
2017-12-19T13:13:25.944Z,17.37
2017-12-19T13:15:55.298Z,18.40
2017-12-19T13:18:26.296Z,19.53
2017-12-19T13:20:54.781Z,17.13
2017-12-19T13:23:23.184Z,20.50
2017-12-19T13:25:51.601Z,18.40
2017-12-19T13:28:20.200Z,16.50
2017-12-19T13:30:48.902Z,16.40
2017-12-19T13:33:17.378Z,17.63
2017-12-19T13:35:45.763Z,18.40
2017-12-19T13:38:14.169Z,18.23
2017-12-19T13:40:42.831Z,16.30
2017-12-19T13:43:12.945Z,18.40
2017-12-19T13:45:41.359Z,17.77
2017-12-19T13:48:09.692Z,17.30
2017-12-19T13:50:38.151Z,18.27
2017-12-19T13:53:06.557Z,19.67
2017-12-19T13:55:34.954Z,18.40
2017-12-19T13:58:03.620Z,21.30
2017-12-19T14:00:32.101Z,23.20
2017-12-19T14:03:00.634Z,21.75
2017-12-19T14:05:34.052Z,23.30
2017-12-19T14:08:02.818Z,22.07
2017-12-19T14:10:31.291Z,23.07
2017-12-19T14:13:00.933Z,24.93
2017-12-19T14:15:29.443Z,22.20
2017-12-19T14:17:57.933Z,24.50
2017-12-19T14:20:26.336Z,21.83
2017-12-19T14:22:54.753Z,20.00
2017-12-19T14:25:23.387Z,23.03
2017-12-19T14:27:52.016Z,24.03
2017-12-19T14:30:20.446Z,24.13
2017-12-19T14:32:48.799Z,23.60
2017-12-19T14:35:17.154Z,18.80
2017-12-19T14:37:45.512Z,23.90
2017-12-19T14:40:14.057Z,22.93
2017-12-19T14:42:42.700Z,20.87
2017-12-19T14:45:11.430Z,20.60
2017-12-19T14:47:39.804Z,19.67
2017-12-19T14:50:08.170Z,20.63
2017-12-19T14:52:41.362Z,22.27
2017-12-19T14:55:09.832Z,20.90
2017-12-19T14:57:39.516Z,21.07
2017-12-19T15:00:08.118Z,21.00
2017-12-19T15:02:37.008Z,24.10
2017-12-19T15:05:05.391Z,20.67
2017-12-19T15:07:34.006Z,22.10
2017-12-19T15:10:02.693Z,22.70
2017-12-19T15:12:31.057Z,24.43
2017-12-19T15:14:59.560Z,22.03
2017-12-19T15:17:28.018Z,19.70
2017-12-19T15:19:56.636Z,19.70
2017-12-19T15:22:25.210Z,21.17
2017-12-19T15:24:53.545Z,21.20
2017-12-19T15:27:22.328Z,21.50
2017-12-19T15:29:50.729Z,20.10
2017-12-19T15:32:19.170Z,21.27
2017-12-19T15:34:47.598Z,21.13
2017-12-19T15:37:15.987Z,21.33
2017-12-19T15:39:44.349Z,21.47
2017-12-19T15:42:12.887Z,24.20
2017-12-19T15:44:41.260Z,22.50
2017-12-19T15:47:09.665Z,20.37
2017-12-19T15:49:37.998Z,22.23
2017-12-19T15:52:06.435Z,22.80
2017-12-19T15:54:35.247Z,24.50
2017-12-19T15:57:04.022Z,22.60
2017-12-19T15:59:32.422Z,25.27
2017-12-19T16:02:00.972Z,23.50
2017-12-19T16:04:29.522Z,26.03
2017-12-19T16:06:58.376Z,25.87
2017-12-19T16:09:27.026Z,26.20
2017-12-19T16:11:55.603Z,26.93
2017-12-19T16:14:25.037Z,24.70
2017-12-19T16:16:53.482Z,27.03
2017-12-19T16:19:23.122Z,27.20
2017-12-19T16:21:51.699Z,25.70
2017-12-19T16:24:20.148Z,26.53
2017-12-19T16:26:48.611Z,27.97
2017-12-19T16:29:16.975Z,28.50
2017-12-19T16:31:45.406Z,28.43
2017-12-19T16:34:13.869Z,27.33
2017-12-19T16:36:43.391Z,28.10
2017-12-19T16:39:11.950Z,27.00
2017-12-19T16:41:40.513Z,26.23
2017-12-19T16:44:08.851Z,27.30
2017-12-19T16:46:37.222Z,26.90
2017-12-19T16:49:05.939Z,29.77
2017-12-19T16:51:34.665Z,27.67
2017-12-19T16:54:03.557Z,27.73
2017-12-19T16:56:31.957Z,28.70
2017-12-19T16:59:00.317Z,28.47
2017-12-19T17:01:28.681Z,29.53
2017-12-19T17:03:57.170Z,27.10
2017-12-19T17:06:25.522Z,29.93
2017-12-19T17:08:53.874Z,28.80
2017-12-19T17:11:22.278Z,28.60
2017-12-19T17:13:50.677Z,28.00
2017-12-19T17:16:19.062Z,27.40
2017-12-19T17:18:47.722Z,31.97
2017-12-19T17:21:16.190Z,31.87
2017-12-19T17:23:44.843Z,34.30
2017-12-19T17:26:13.211Z,30.37
2017-12-19T17:28:41.616Z,33.33
2017-12-19T17:31:09.996Z,34.10
2017-12-19T17:33:38.480Z,32.17
2017-12-19T17:36:06.828Z,31.33
2017-12-19T17:38:39.616Z,34.63
2017-12-19T17:41:08.014Z,36.50
2017-12-19T17:43:36.448Z,31.93
2017-12-19T17:46:04.997Z,33.13
2017-12-19T17:48:33.337Z,33.03
2017-12-19T17:51:01.833Z,32.17
2017-12-19T17:53:30.235Z,34.33
2017-12-19T17:55:58.598Z,34.37
2017-12-19T17:58:27.024Z,34.73
2017-12-19T18:00:56.318Z,34.60
2017-12-19T18:03:24.786Z,32.93
2017-12-19T18:05:53.168Z,32.27
2017-12-19T18:08:21.518Z,31.47
2017-12-19T18:10:50.805Z,34.57
2017-12-19T18:13:20.175Z,30.67
2017-12-19T18:15:48.607Z,32.60
2017-12-19T18:18:16.993Z,32.80
2017-12-19T18:20:46.110Z,30.10
2017-12-19T18:23:14.487Z,29.70
2017-12-19T18:25:42.853Z,30.40
2017-12-19T18:28:11.201Z,30.23
2017-12-19T18:30:39.608Z,29.67
2017-12-19T18:33:08.033Z,29.57
2017-12-19T18:35:36.390Z,30.20
2017-12-19T18:38:04.701Z,29.13
2017-12-19T18:40:33.059Z,29.57
2017-12-19T18:43:01.466Z,30.10
2017-12-19T18:45:29.930Z,32.87
2017-12-19T18:47:58.278Z,29.67
2017-12-19T18:50:26.714Z,28.80
2017-12-19T18:52:55.073Z,30.90
2017-12-19T18:55:23.438Z,34.73
2017-12-19T18:57:51.822Z,31.80
2017-12-19T19:00:20.213Z,31.93
2017-12-19T19:02:48.646Z,32.80
2017-12-19T19:05:17.036Z,32.90
2017-12-19T19:07:45.741Z,31.63
2017-12-19T19:10:14.093Z,32.30
2017-12-19T19:12:42.562Z,29.80
2017-12-19T19:15:10.889Z,30.63
2017-12-19T19:17:39.249Z,33.97
2017-12-19T19:20:09.886Z,29.90
2017-12-19T19:22:38.662Z,33.47
2017-12-19T19:25:08.280Z,35.43
2017-12-19T19:27:38.828Z,32.57
2017-12-19T19:30:07.572Z,32.33
2017-12-19T19:35:11.910Z,33.93
2017-12-19T19:37:42.881Z,35.70
2017-12-19T19:40:12.502Z,35.13
2017-12-19T19:42:42.002Z,33.00
2017-12-19T19:45:10.722Z,34.07
2017-12-19T19:47:39.987Z,30.30
2017-12-19T19:50:09.536Z,31.67
2017-12-19T19:52:38.140Z,34.10
2017-12-19T19:55:06.673Z,33.20
2017-12-19T19:57:35.270Z,30.70
2017-12-19T20:00:03.757Z,33.00
2017-12-19T20:02:33.784Z,33.60
2017-12-19T20:05:03.018Z,34.00
2017-12-19T20:07:31.376Z,35.30
2017-12-19T20:09:59.795Z,35.10
2017-12-19T20:12:28.149Z,36.57
2017-12-19T20:14:56.521Z,32.60
2017-12-19T20:17:25.410Z,30.53
2017-12-19T20:19:53.789Z,34.53
2017-12-19T20:22:22.800Z,30.63
2017-12-19T20:24:51.180Z,31.10
2017-12-19T20:27:19.618Z,33.53
2017-12-19T20:29:47.966Z,34.83
2017-12-19T20:32:16.432Z,31.40
2017-12-19T20:34:51.232Z,33.60
2017-12-19T20:37:21.682Z,32.27
2017-12-19T20:39:50.879Z,33.80
2017-12-19T20:42:21.427Z,32.13
2017-12-19T20:44:49.997Z,28.03
2017-12-19T20:47:19.431Z,31.77
2017-12-19T20:49:49.987Z,28.97
2017-12-19T20:52:18.325Z,30.67
2017-12-19T20:54:46.880Z,28.67
2017-12-19T20:57:15.325Z,30.33
2017-12-19T20:59:44.427Z,32.67
2017-12-19T21:02:12.873Z,32.87
2017-12-19T21:04:41.227Z,29.83
2017-12-19T21:07:09.887Z,32.07
2017-12-19T21:09:44.592Z,36.00
2017-12-19T21:12:13.501Z,32.93
2017-12-19T21:14:41.843Z,32.50
2017-12-19T21:17:10.187Z,33.13
2017-12-19T21:19:38.569Z,32.37
2017-12-19T21:22:06.952Z,35.40
2017-12-19T21:24:35.311Z,36.23
2017-12-19T21:27:03.652Z,34.53
2017-12-19T21:29:37.913Z,37.17
2017-12-19T21:32:06.253Z,36.50
2017-12-19T21:34:38.291Z,33.50
2017-12-19T21:37:13.865Z,37.77
2017-12-19T21:39:43.470Z,34.53
2017-12-19T21:42:13.320Z,33.47
2017-12-19T21:44:41.729Z,31.63
2017-12-19T21:47:10.971Z,34.67
2017-12-19T21:49:39.494Z,36.70
2017-12-19T21:52:07.869Z,35.33
2017-12-19T21:54:36.325Z,38.30
2017-12-19T21:57:04.692Z,34.33
2017-12-19T21:59:33.256Z,32.57
2017-12-19T22:02:02.738Z,33.67
2017-12-19T22:04:31.064Z,34.40
2017-12-19T22:06:59.555Z,31.33
2017-12-19T22:09:28.929Z,35.73
2017-12-19T22:11:57.418Z,31.90
2017-12-19T22:14:25.899Z,33.60
2017-12-19T22:16:54.235Z,30.37
2017-12-19T22:19:22.625Z,28.83
2017-12-19T22:21:50.975Z,27.13
2017-12-19T22:24:19.918Z,31.60
2017-12-19T22:26:48.233Z,30.60
2017-12-19T22:29:16.613Z,27.67
2017-12-19T22:34:37.983Z,23.70
2017-12-19T22:37:06.403Z,25.80
2017-12-19T22:39:36.086Z,23.77
2017-12-19T22:42:05.024Z,24.93
2017-12-19T22:44:33.986Z,26.70
2017-12-19T22:47:03.856Z,25.00
2017-12-19T22:49:32.967Z,24.97
2017-12-19T22:52:01.300Z,28.20
2017-12-19T22:54:29.895Z,24.27
2017-12-19T22:56:58.363Z,24.57
2017-12-19T22:59:26.861Z,29.23
2017-12-19T23:01:55.291Z,25.63
2017-12-19T23:04:24.853Z,28.37
2017-12-19T23:06:53.949Z,21.97
2017-12-19T23:09:22.312Z,26.03
2017-12-19T23:11:50.650Z,22.43
2017-12-19T23:14:19.118Z,26.90
2017-12-19T23:16:47.430Z,23.93
2017-12-19T23:19:15.782Z,24.60
2017-12-19T23:21:45.090Z,25.30
2017-12-19T23:24:13.417Z,27.00
2017-12-19T23:26:41.826Z,24.57
2017-12-19T23:29:10.150Z,24.07
2017-12-19T23:31:38.460Z,25.83
2017-12-19T23:34:07.083Z,23.00
2017-12-19T23:36:35.415Z,25.33
2017-12-19T23:39:03.800Z,22.13
2017-12-19T23:41:32.127Z,25.77
2017-12-19T23:44:00.462Z,22.60
2017-12-19T23:46:28.808Z,24.93
2017-12-19T23:48:57.140Z,25.27
2017-12-19T23:51:25.529Z,24.23
2017-12-19T23:53:54.329Z,25.97
2017-12-19T23:56:22.682Z,22.20
2017-12-19T23:58:51.007Z,24.60
